Le Roy, Illinois
Current Conditions -  °F | °C
As of 9:56 AM on Friday 28 Nov 2014 (Local Time) from KBMI Reporting Station
Clear Clear  
Wind Chill: -9°   Ceiling: Unl
Heat Index: -2°   Visibility: 10mi
Dew Point: -5°   Wind: 22mph
Humidity: 78%   Direction: 170°S
Pressure: 30.18"   Gusts: NA
Location:  40.35°N, 88.76°W
Report Text: KBMI 281556Z 17019KT 10SM CLR M02/M05 A3018 RMK AO2 T10161050 SLP245
Loading
Personal Weather Stations






























Interactive Weather Map New forecast layout! Learn more

10-Day Weather Forecast

Advertisements
Track Severe Weather on mobile